Time;durP1;ratioP1;P1;durP2;ratioP2;P2;SDS_P1;SDS_P2;PMS_P1;PMS_P2;Temp;Humidity;BMP_temperature;BMP_pressure;BME280_temperature;BME280_humidity;BME280_pressure;Samples;Min_cycle;Max_cycle;Signal;HPM_P1;HPM_P2
2021/06/17 00:00:27;;;;;;;6.45;5.85;;;;;28.10;100898.00;;;;5104000;28;20205;-77
2021/06/17 00:02:55;;;;;;;7.03;6.38;;;;;28.00;100900.00;;;;5097565;28;20198;-77
2021/06/17 00:05:24;;;;;;;6.43;5.85;;;;;28.00;100905.00;;;;5109569;28;20197;-77
2021/06/17 00:07:52;;;;;;;7.03;6.38;;;;;28.00;100904.00;;;;5103346;28;20232;-77
2021/06/17 00:10:25;;;;;;;9.82;6.68;;;;;28.00;100904.00;;;;5108216;28;20667;-77
2021/06/17 00:12:53;;;;;;;9.40;6.68;;;;;28.00;100908.00;;;;5108613;28;20205;-77
2021/06/17 00:15:22;;;;;;;9.18;6.55;;;;;28.00;100902.00;;;;5108100;28;20197;-77
2021/06/17 00:17:49;;;;;;;8.15;7.30;;;;;27.90;100901.00;;;;5108451;28;20193;-77
2021/06/17 00:20:17;;;;;;;16.13;7.85;;;;;27.90;100904.00;;;;5109423;28;20573;-77
2021/06/17 00:22:45;;;;;;;8.63;7.45;;;;;27.90;100900.00;;;;5109688;28;20198;-77
2021/06/17 00:25:14;;;;;;;8.10;6.45;;;;;27.90;100910.00;;;;5104945;28;20205;-77
2021/06/17 00:27:42;;;;;;;10.90;7.30;;;;;27.90;100900.00;;;;5106931;28;20236;-77
2021/06/17 00:30:12;;;;;;;7.82;6.97;;;;;27.90;100901.00;;;;5109173;28;20193;-77
2021/06/17 00:32:39;;;;;;;8.27;7.50;;;;;27.90;100908.00;;;;5108244;28;20727;-77
2021/06/17 00:35:09;;;;;;;11.35;7.38;;;;;27.80;100898.00;;;;5093155;28;20704;-77
2021/06/17 00:37:36;;;;;;;9.68;7.32;;;;;27.80;100895.00;;;;5094094;28;20208;-77
2021/06/17 00:40:05;;;;;;;8.05;7.35;;;;;27.80;100892.00;;;;5109522;28;20198;-77
2021/06/17 00:42:32;;;;;;;8.88;7.63;;;;;27.80;100892.00;;;;5108494;28;20189;-77
2021/06/17 00:45:01;;;;;;;8.77;7.90;;;;;27.70;100883.00;;;;5108226;28;20201;-77
2021/06/17 00:47:29;;;;;;;8.27;7.40;;;;;27.70;100883.00;;;;5107271;28;20217;-77
2021/06/17 00:49:56;;;;;;;8.32;7.63;;;;;27.70;100881.00;;;;5109921;28;20209;-77
2021/06/17 00:52:23;;;;;;;10.27;7.93;;;;;27.70;100881.00;;;;5108586;28;20227;-77
2021/06/17 00:54:50;;;;;;;10.40;7.88;;;;;27.60;100884.00;;;;5108161;28;20200;-77
2021/06/17 00:57:18;;;;;;;11.07;7.30;;;;;27.60;100880.00;;;;5108950;28;20208;-77
2021/06/17 00:59:45;;;;;;;8.60;7.45;;;;;27.60;100880.00;;;;5108670;28;20232;-76
2021/06/17 01:02:14;;;;;;;8.63;7.55;;;;;27.60;100877.00;;;;5107625;28;20205;-77
2021/06/17 01:04:42;;;;;;;8.20;7.40;;;;;27.60;100870.00;;;;5107655;28;20201;-76
2021/06/17 01:07:10;;;;;;;9.57;7.28;;;;;27.50;100874.00;;;;5107915;28;20198;-76
2021/06/17 01:09:48;;;;;;;9.10;7.05;;;;;27.50;100874.00;;;;5107242;28;20664;-77
2021/06/17 01:12:28;;;;;;;8.00;7.25;;;;;27.40;100869.00;;;;5106525;28;20182;-76
2021/06/17 01:15:04;;;;;;;8.32;7.55;;;;;27.40;100858.00;;;;5106544;28;20193;-77
2021/06/17 01:17:37;;;;;;;8.13;7.32;;;;;27.40;100861.00;;;;5092157;28;20204;-77
2021/06/17 01:20:18;;;;;;;9.23;7.60;;;;;27.30;100867.00;;;;5109469;28;20586;-76
2021/06/17 01:22:51;;;;;;;8.60;7.75;;;;;27.30;100855.00;;;;5099040;28;20201;-76
2021/06/17 01:25:51;;;;;;;8.75;7.53;;;;;27.20;100859.00;;;;5094487;28;20203;-77
2021/06/17 01:28:20;;;;;;;9.52;7.28;;;;;27.30;100857.00;;;;5094644;28;20225;-77
2021/06/17 01:30:52;;;;;;;8.05;7.20;;;;;27.30;100861.00;;;;5108709;28;20283;-77
2021/06/17 01:33:20;;;;;;;8.93;8.05;;;;;27.30;100861.00;;;;5107750;28;20200;-77
2021/06/17 01:35:50;;;;;;;8.77;7.28;;;;;27.20;100867.00;;;;5098142;28;20225;-77
2021/06/17 01:38:23;;;;;;;7.95;7.15;;;;;27.20;100863.00;;;;5108909;28;20194;-77
2021/06/17 01:40:52;;;;;;;9.02;8.13;;;;;27.20;100869.00;;;;5107998;28;20205;-77
2021/06/17 01:43:21;;;;;;;7.57;6.88;;;;;27.20;100872.00;;;;5107052;28;20198;-77
2021/06/17 01:45:50;;;;;;;8.27;7.40;;;;;27.10;100878.00;;;;5097735;28;20190;-77
2021/06/17 01:48:18;;;;;;;7.90;7.07;;;;;27.10;100883.00;;;;5102409;28;20625;-77
2021/06/17 01:50:47;;;;;;;8.15;7.18;;;;;27.10;100886.00;;;;5107249;28;21081;-77
2021/06/17 01:53:17;;;;;;;8.45;7.65;;;;;27.10;100879.00;;;;5099718;28;20210;-77
2021/06/17 01:55:45;;;;;;;8.27;7.47;;;;;27.10;100879.00;;;;5098988;28;20197;-77
2021/06/17 01:58:15;;;;;;;8.38;7.50;;;;;27.00;100874.00;;;;5107336;28;20212;-77
2021/06/17 02:00:46;;;;;;;8.85;8.05;;;;;27.00;100868.00;;;;5104773;28;20198;-76
2021/06/17 02:03:16;;;;;;;8.30;7.50;;;;;27.00;100867.00;;;;5106083;28;20200;-76
2021/06/17 02:05:43;;;;;;;8.45;7.65;;;;;27.00;100863.00;;;;5107959;28;20201;-77
2021/06/17 02:08:11;;;;;;;8.13;7.32;;;;;27.00;100870.00;;;;5108244;28;20244;-77
2021/06/17 02:10:41;;;;;;;8.05;7.03;;;;;27.00;100865.00;;;;5106917;28;20206;-77
2021/06/17 02:13:13;;;;;;;9.30;8.40;;;;;26.90;100852.00;;;;5106755;28;20185;-77
2021/06/17 02:15:44;;;;;;;8.80;7.95;;;;;26.90;100847.00;;;;5106535;28;20208;-77
2021/06/17 02:18:12;;;;;;;7.55;6.90;;;;;26.90;100837.00;;;;5107202;28;20193;-77
2021/06/17 02:20:40;;;;;;;7.93;7.13;;;;;26.90;100837.00;;;;5108247;28;20209;-78
2021/06/17 02:23:09;;;;;;;8.82;7.13;;;;;26.90;100831.00;;;;5106961;28;20220;-77
2021/06/17 02:25:38;;;;;;;8.40;7.60;;;;;26.90;100832.00;;;;5107219;28;20251;-77
2021/06/17 02:28:09;;;;;;;7.72;7.03;;;;;26.80;100822.00;;;;5110872;28;20221;-77
2021/06/17 02:30:39;;;;;;;8.45;7.65;;;;;26.80;100819.00;;;;5110621;28;20198;-77
2021/06/17 02:33:10;;;;;;;8.93;8.05;;;;;26.70;100820.00;;;;5109009;28;20197;-77
2021/06/17 02:35:39;;;;;;;8.63;7.82;;;;;26.70;100812.00;;;;5111786;28;20225;-77
2021/06/17 02:38:08;;;;;;;7.90;7.20;;;;;26.70;100821.00;;;;5110259;28;20205;-77
2021/06/17 02:40:41;;;;;;;8.40;7.60;;;;;26.70;100821.00;;;;5109841;28;20201;-77
2021/06/17 02:43:10;;;;;;;8.02;7.22;;;;;26.70;100813.00;;;;5110003;28;20190;-78
2021/06/17 02:45:38;;;;;;;7.78;7.07;;;;;26.70;100805.00;;;;5100894;28;20214;-77
2021/06/17 02:48:08;;;;;;;7.55;6.88;;;;;26.60;100813.00;;;;5101202;28;20218;-77
2021/06/17 02:50:36;;;;;;;7.85;7.10;;;;;26.60;100805.00;;;;5104255;28;20182;-77
2021/06/17 02:53:03;;;;;;;7.65;6.90;;;;;26.60;100811.00;;;;5111275;28;20193;-77
2021/06/17 02:55:30;;;;;;;8.40;7.60;;;;;26.60;100803.00;;;;5111146;28;20198;-77
2021/06/17 02:58:05;;;;;;;7.95;6.93;;;;;26.60;100799.00;;;;5101986;28;20276;-77
2021/06/17 03:00:36;;;;;;;7.28;6.63;;;;;26.50;100798.00;;;;5099525;28;20197;-77
2021/06/17 03:03:16;;;;;;;7.13;6.43;;;;;26.50;100797.00;;;;5110732;28;20195;-77
2021/06/17 03:05:51;;;;;;;8.10;6.75;;;;;26.50;100804.00;;;;5111674;28;20246;-77
2021/06/17 03:08:22;;;;;;;8.13;7.32;;;;;26.50;100799.00;;;;5108327;28;20221;-77
2021/06/17 03:10:52;;;;;;;7.95;7.03;;;;;26.50;100797.00;;;;5110557;28;20201;-77
2021/06/17 03:13:22;;;;;;;7.97;7.18;;;;;26.50;100792.00;;;;5109569;28;20205;-77
2021/06/17 03:15:51;;;;;;;7.10;6.40;;;;;26.50;100797.00;;;;5109838;28;20197;-77
2021/06/17 03:18:21;;;;;;;7.70;6.90;;;;;26.50;100799.00;;;;5110104;28;20213;-77
2021/06/17 03:20:50;;;;;;;10.18;6.70;;;;;26.50;100800.00;;;;5110776;28;20512;-77
2021/06/17 03:23:19;;;;;;;8.20;7.18;;;;;26.50;100799.00;;;;5109479;28;20201;-77
2021/06/17 03:25:51;;;;;;;7.85;6.65;;;;;26.40;100796.00;;;;5105611;28;20198;-77
2021/06/17 03:28:19;;;;;;;7.38;6.68;;;;;26.40;100792.00;;;;5098825;28;20271;-77
2021/06/17 03:30:49;;;;;;;7.22;6.43;;;;;26.40;100797.00;;;;5091261;28;20206;-77
2021/06/17 03:33:22;;;;;;;7.70;6.40;;;;;26.40;100794.00;;;;5101637;28;20190;-77
2021/06/17 03:35:50;;;;;;;7.68;6.63;;;;;26.40;100790.00;;;;5108781;28;20218;-77
2021/06/17 03:38:20;;;;;;;6.85;6.05;;;;;26.40;100792.00;;;;5097956;28;20209;-77
2021/06/17 03:40:49;;;;;;;7.65;6.47;;;;;26.40;100790.00;;;;5106453;28;20281;-77
2021/06/17 03:43:19;;;;;;;6.78;6.07;;;;;26.40;100792.00;;;;5101313;28;20225;-77
2021/06/17 03:45:48;;;;;;;6.97;6.38;;;;;26.40;100797.00;;;;5101181;28;20198;-77
2021/06/17 03:48:17;;;;;;;7.43;6.72;;;;;26.40;100797.00;;;;5109631;28;20209;-77
2021/06/17 03:50:48;;;;;;;8.60;6.85;;;;;26.40;100798.00;;;;5110387;28;20190;-76
2021/06/17 03:53:16;;;;;;;7.57;6.82;;;;;26.40;100800.00;;;;5108296;28;20197;-77
2021/06/17 03:55:45;;;;;;;7.30;6.60;;;;;26.40;100801.00;;;;5110539;28;20190;-77
2021/06/17 03:58:13;;;;;;;7.25;6.47;;;;;26.40;100800.00;;;;5109787;28;20212;-77
2021/06/17 04:00:41;;;;;;;7.28;6.68;;;;;26.40;100797.00;;;;5102978;28;20275;-77
2021/06/17 04:03:10;;;;;;;7.75;7.03;;;;;26.40;100790.00;;;;5109902;28;20295;-77
2021/06/17 04:05:38;;;;;;;7.25;6.57;;;;;26.40;100792.00;;;;5106196;28;20201;-76
2021/06/17 04:08:11;;;;;;;7.30;6.60;;;;;26.40;100796.00;;;;5105259;28;20556;-76
2021/06/17 04:10:39;;;;;;;8.23;7.30;;;;;26.40;100798.00;;;;5106492;28;20730;-76
2021/06/17 04:13:08;;;;;;;7.40;6.70;;;;;26.50;100798.00;;;;5103668;28;20194;-76
2021/06/17 04:15:37;;;;;;;7.38;6.38;;;;;26.50;100796.00;;;;5106265;28;20194;-76
2021/06/17 04:18:05;;;;;;;8.15;7.45;;;;;26.50;100798.00;;;;5101286;28;20197;-76
2021/06/17 04:20:35;;;;;;;8.35;7.55;;;;;26.50;100801.00;;;;5106932;28;20211;-76
2021/06/17 04:23:06;;;;;;;7.45;6.72;;;;;26.60;100809.00;;;;5102298;28;20206;-76
2021/06/17 04:25:35;;;;;;;9.20;7.97;;;;;26.60;100798.00;;;;5101821;28;20217;-76
2021/06/17 04:28:04;;;;;;;8.40;7.38;;;;;26.70;100807.00;;;;5107307;28;20664;-76
2021/06/17 04:30:33;;;;;;;8.20;7.32;;;;;26.70;100799.00;;;;5108447;28;20686;-76
2021/06/17 04:33:03;;;;;;;8.13;7.32;;;;;26.80;100797.00;;;;5107362;28;20200;-76
2021/06/17 04:35:32;;;;;;;9.57;8.68;;;;;26.90;100802.00;;;;5107524;28;20243;-75
2021/06/17 04:38:00;;;;;;;8.90;8.00;;;;;27.00;100807.00;;;;5107615;28;20197;-77
2021/06/17 04:40:28;;;;;;;10.32;9.38;;;;;27.00;100805.00;;;;5106687;28;20235;-76
2021/06/17 04:42:59;;;;;;;10.50;8.35;;;;;27.00;100808.00;;;;5108284;28;20205;-77
2021/06/17 04:45:29;;;;;;;8.45;7.65;;;;;27.10;100816.00;;;;5109099;28;20197;-76
2021/06/17 04:47:58;;;;;;;11.13;8.25;;;;;27.20;100811.00;;;;5108623;28;20224;-76
2021/06/17 04:50:25;;;;;;;9.07;8.18;;;;;27.30;100808.00;;;;5108571;28;20232;-76
2021/06/17 04:53:13;;;;;;;8.45;7.72;;;;;27.20;100805.00;;;;5108633;28;20193;-77
2021/06/17 04:55:47;;;;;;;10.18;9.18;;;;;27.40;100811.00;;;;5109226;28;20193;-76
2021/06/17 04:58:16;;;;;;;10.20;9.20;;;;;27.40;100807.00;;;;5110306;28;20197;-76
2021/06/17 05:00:44;;;;;;;10.55;9.43;;;;;27.50;100812.00;;;;5108073;28;20190;-76
2021/06/17 05:03:11;;;;;;;12.27;9.23;;;;;27.60;100817.00;;;;5093997;28;20289;-76
2021/06/17 05:05:39;;;;;;;10.70;9.43;;;;;27.70;100810.00;;;;5108342;28;20206;-78
2021/06/17 05:10:54;;;;;;;10.48;8.85;;;;;27.80;100810.00;;;;5109530;28;20212;-77
2021/06/17 05:13:24;;;;;;;10.50;9.43;;;;;27.90;100806.00;;;;5109090;28;20205;-77
2021/06/17 05:15:53;;;;;;;12.50;10.57;;;;;27.90;100808.00;;;;5109096;28;20655;-76
2021/06/17 05:18:22;;;;;;;11.45;9.85;;;;;28.00;100816.00;;;;5108231;28;20212;-77
2021/06/17 05:20:49;;;;;;;11.07;9.98;;;;;28.10;100819.00;;;;5106216;28;20197;-77
2021/06/17 05:23:20;;;;;;;10.25;9.20;;;;;28.10;100813.00;;;;5106222;28;20201;-77
2021/06/17 05:25:48;;;;;;;14.85;10.23;;;;;28.20;100818.00;;;;5101078;28;20689;-77
2021/06/17 05:28:20;;;;;;;10.93;9.77;;;;;28.30;100816.00;;;;5104372;28;20198;-77
2021/06/17 05:30:52;;;;;;;12.15;10.52;;;;;28.30;100805.00;;;;5105486;28;20229;-77
2021/06/17 05:33:20;;;;;;;12.55;9.98;;;;;28.40;100812.00;;;;5095476;28;20201;-77
2021/06/17 05:35:48;;;;;;;12.23;8.77;;;;;28.50;100811.00;;;;5093893;28;20774;-76
2021/06/17 05:38:17;;;;;;;11.27;10.07;;;;;28.50;100811.00;;;;5101214;28;20198;-77
2021/06/17 05:40:45;;;;;;;11.93;10.10;;;;;28.60;100816.00;;;;5100761;28;20221;-77
2021/06/17 05:43:12;;;;;;;12.55;10.52;;;;;28.70;100814.00;;;;5108792;28;20197;-77
2021/06/17 05:45:40;;;;;;;12.77;9.80;;;;;28.70;100819.00;;;;5107132;28;20210;-78
2021/06/17 05:48:09;;;;;;;12.43;9.85;;;;;28.80;100821.00;;;;5107883;28;20354;-77
2021/06/17 05:50:37;;;;;;;11.95;10.55;;;;;28.90;100824.00;;;;5107918;28;20221;-77
2021/06/17 05:53:04;;;;;;;14.25;10.60;;;;;29.00;100832.00;;;;5107625;28;20209;-79
2021/06/17 05:55:33;;;;;;;10.73;9.63;;;;;29.00;100836.00;;;;5102775;28;20190;-80
2021/06/17 05:58:01;;;;;;;10.73;9.63;;;;;29.10;100836.00;;;;5105846;28;20196;-79
2021/06/17 06:00:28;;;;;;;12.55;10.30;;;;;29.20;100835.00;;;;5108691;28;20201;-79
2021/06/17 06:02:57;;;;;;;10.32;9.25;;;;;29.20;100833.00;;;;5106933;28;20205;-81
2021/06/17 06:05:26;;;;;;;12.40;9.20;;;;;29.30;100825.00;;;;5108346;28;20225;-81
2021/06/17 06:08:01;;;;;;;11.38;10.18;;;;;29.30;100829.00;;;;5108559;28;20205;-80
2021/06/17 06:10:28;;;;;;;15.43;9.88;;;;;29.40;100829.00;;;;5108512;28;20229;-81
2021/06/17 06:12:56;;;;;;;10.88;9.55;;;;;29.50;100833.00;;;;5108500;28;20202;-80
2021/06/17 06:15:24;;;;;;;12.43;9.57;;;;;29.50;100843.00;;;;5108700;28;20204;-81
2021/06/17 06:17:51;;;;;;;10.90;9.52;;;;;29.60;100839.00;;;;5108401;28;20227;-81
2021/06/17 06:20:18;;;;;;;10.07;9.07;;;;;29.60;100831.00;;;;5108303;28;20236;-80
2021/06/17 06:22:47;;;;;;;13.25;9.38;;;;;29.60;100833.00;;;;5106304;28;20288;-81
2021/06/17 06:25:14;;;;;;;9.60;8.63;;;;;29.70;100835.00;;;;5108430;28;20194;-81
2021/06/17 06:27:42;;;;;;;11.38;9.73;;;;;29.80;100846.00;;;;5094625;28;20587;-80
2021/06/17 06:30:11;;;;;;;8.85;7.97;;;;;29.80;100839.00;;;;5108037;28;20221;-80
2021/06/17 06:32:38;;;;;;;13.50;9.27;;;;;29.90;100838.00;;;;5107146;28;20641;-81
2021/06/17 06:35:07;;;;;;;9.90;8.85;;;;;29.90;100835.00;;;;5107976;28;20232;-80
2021/06/17 06:37:34;;;;;;;12.10;9.70;;;;;30.00;100844.00;;;;5107360;28;20255;-81
2021/06/17 06:40:04;;;;;;;8.68;7.82;;;;;30.00;100848.00;;;;5108006;28;20205;-81
2021/06/17 06:42:31;;;;;;;9.40;8.32;;;;;30.10;100839.00;;;;5107764;28;20209;-80
2021/06/17 06:44:58;;;;;;;12.63;9.32;;;;;30.10;100846.00;;;;5108848;28;20205;-81
2021/06/17 06:47:26;;;;;;;9.75;8.40;;;;;30.20;100843.00;;;;5108331;28;20224;-81
2021/06/17 06:49:53;;;;;;;9.13;8.23;;;;;30.20;100845.00;;;;5107797;28;20236;-81
2021/06/17 06:52:20;;;;;;;9.40;8.52;;;;;30.30;100847.00;;;;5102830;28;20244;-80
2021/06/17 06:54:48;;;;;;;10.38;8.82;;;;;30.30;100848.00;;;;5097084;28;20201;-79
2021/06/17 06:57:16;;;;;;;10.77;8.43;;;;;30.30;100857.00;;;;5108246;28;20676;-80
2021/06/17 06:59:43;;;;;;;9.40;8.43;;;;;30.30;100863.00;;;;5108648;28;20205;-79
2021/06/17 07:02:10;;;;;;;9.20;8.30;;;;;30.40;100874.00;;;;5108848;28;20209;-79
2021/06/17 07:04:38;;;;;;;8.90;8.00;;;;;30.40;100877.00;;;;5107906;28;20432;-80
2021/06/17 07:07:05;;;;;;;9.35;7.43;;;;;30.50;100883.00;;;;5105530;28;20202;-80
2021/06/17 07:09:32;;;;;;;7.97;7.18;;;;;30.60;100876.00;;;;5106721;28;20217;-80
2021/06/17 07:12:02;;;;;;;9.88;8.18;;;;;30.70;100884.00;;;;5108449;28;20190;-80
2021/06/17 07:14:31;;;;;;;9.60;7.00;;;;;30.80;100877.00;;;;5102517;28;20274;-78
2021/06/17 07:16:58;;;;;;;7.15;5.90;;;;;30.90;100893.00;;;;5111231;28;20205;-80
2021/06/17 07:19:26;;;;;;;7.82;5.80;;;;;31.00;100896.00;;;;5108656;28;20194;-79
2021/06/17 07:21:53;;;;;;;10.85;8.05;;;;;31.20;100900.00;;;;5090866;28;20660;-80
2021/06/17 07:24:21;;;;;;;6.88;6.07;;;;;31.30;100901.00;;;;5090657;28;20210;-80
2021/06/17 07:26:50;;;;;;;7.68;5.55;;;;;31.40;100899.00;;;;5100738;28;20209;-80
2021/06/17 07:29:18;;;;;;;7.70;5.65;;;;;31.50;100895.00;;;;5101581;28;20208;-80
2021/06/17 07:31:46;;;;;;;5.95;5.32;;;;;31.60;100893.00;;;;5110341;28;20678;-80
2021/06/17 07:34:14;;;;;;;6.20;5.05;;;;;31.70;100898.00;;;;5110902;28;20246;-80
2021/06/17 07:36:43;;;;;;;5.13;4.55;;;;;31.70;100886.00;;;;5110668;28;20212;-81
2021/06/17 07:39:13;;;;;;;4.65;3.63;;;;;31.80;100896.00;;;;5111133;28;20221;-80
2021/06/17 07:41:40;;;;;;;9.38;3.70;;;;;32.00;100901.00;;;;5110117;28;20205;-81
2021/06/17 07:44:09;;;;;;;10.77;3.88;;;;;32.10;100903.00;;;;5109355;28;20590;-82
2021/06/17 07:46:37;;;;;;;4.18;3.78;;;;;32.20;100906.00;;;;5109909;28;20212;-80
2021/06/17 07:49:05;;;;;;;3.85;3.53;;;;;32.30;100904.00;;;;5110225;28;20240;-81
2021/06/17 07:51:33;;;;;;;4.63;3.47;;;;;32.40;100898.00;;;;5109104;28;20209;-80
2021/06/17 07:54:01;;;;;;;3.95;3.60;;;;;32.60;100897.00;;;;5110189;28;20245;-83
2021/06/17 07:56:29;;;;;;;3.53;3.22;;;;;32.60;100896.00;;;;5108194;28;20185;-82
2021/06/17 07:58:57;;;;;;;7.68;3.42;;;;;32.70;100888.00;;;;5108507;28;20210;-82
2021/06/17 08:01:24;;;;;;;4.85;3.80;;;;;32.80;100890.00;;;;5110936;27;20204;-81
2021/06/17 08:03:52;;;;;;;4.60;3.83;;;;;32.90;100903.00;;;;5110907;28;20293;-82
2021/06/17 08:06:21;;;;;;;3.90;3.50;;;;;33.00;100913.00;;;;5104918;28;20197;-82
2021/06/17 08:08:48;;;;;;;6.32;4.32;;;;;33.10;100915.00;;;;5110150;28;20193;-81
2021/06/17 08:11:16;;;;;;;4.50;4.10;;;;;33.20;100908.00;;;;5110812;28;20224;-80
2021/06/17 08:13:43;;;;;;;6.65;4.43;;;;;33.30;100910.00;;;;5110230;28;20197;-80
2021/06/17 08:16:10;;;;;;;6.68;3.95;;;;;33.40;100906.00;;;;5111160;28;20197;-80
2021/06/17 08:18:37;;;;;;;3.90;3.50;;;;;33.50;100905.00;;;;5110139;28;21134;-81
2021/06/17 08:21:04;;;;;;;3.67;3.05;;;;;33.60;100897.00;;;;5111012;28;20204;-79
2021/06/17 08:23:33;;;;;;;3.60;2.72;;;;;33.60;100896.00;;;;5105979;28;20580;-79
2021/06/17 08:26:01;;;;;;;3.95;2.88;;;;;33.70;100894.00;;;;5109823;28;20205;-78
2021/06/17 08:28:29;;;;;;;3.75;2.65;;;;;33.80;100893.00;;;;5111821;28;20552;-79
2021/06/17 08:30:57;;;;;;;3.67;2.67;;;;;33.90;100884.00;;;;5109437;28;20212;-79
2021/06/17 08:33:33;;;;;;;3.83;2.78;;;;;34.00;100890.00;;;;5106216;28;20193;-79
2021/06/17 08:36:02;;;;;;;3.00;2.55;;;;;34.10;100880.00;;;;5108519;28;20212;-79
2021/06/17 08:38:30;;;;;;;2.75;2.55;;;;;34.20;100880.00;;;;5108019;28;20185;-78
2021/06/17 08:40:58;;;;;;;5.65;3.33;;;;;34.30;100892.00;;;;5108524;28;20275;-77
2021/06/17 08:43:25;;;;;;;6.18;2.50;;;;;34.40;100896.00;;;;5105476;28;20665;-79
2021/06/17 08:45:53;;;;;;;3.70;2.70;;;;;34.50;100883.00;;;;5113545;28;20185;-79
2021/06/17 08:48:20;;;;;;;4.43;2.63;;;;;34.60;100868.00;;;;5109391;28;20217;-80
2021/06/17 08:50:48;;;;;;;3.90;2.00;;;;;34.70;100865.00;;;;5113164;28;20220;-80
2021/06/17 08:53:16;;;;;;;2.47;2.08;;;;;34.70;100858.00;;;;5109577;28;20197;-80
2021/06/17 08:55:43;;;;;;;6.75;2.78;;;;;34.80;100852.00;;;;5110110;28;20689;-80
2021/06/17 08:58:11;;;;;;;3.35;1.80;;;;;34.90;100843.00;;;;5112038;28;20193;-79
2021/06/17 09:00:41;;;;;;;2.20;2.00;;;;;35.00;100844.00;;;;5113300;28;20231;-80
2021/06/17 09:03:10;;;;;;;2.30;2.05;;;;;35.10;100828.00;;;;5108771;28;20197;-81
2021/06/17 09:05:39;;;;;;;3.03;2.22;;;;;35.10;100831.00;;;;5109328;28;20189;-81
2021/06/17 09:08:08;;;;;;;1.83;1.73;;;;;35.10;100824.00;;;;5109906;28;20681;-81
2021/06/17 09:10:39;;;;;;;5.43;2.53;;;;;35.20;100811.00;;;;5107562;28;20216;-81
2021/06/17 09:13:07;;;;;;;3.08;2.08;;;;;35.20;100814.00;;;;5107467;28;20287;-81
2021/06/17 09:15:39;;;;;;;3.80;2.28;;;;;35.20;100808.00;;;;5107395;28;20197;-82
2021/06/17 09:18:18;;;;;;;2.25;1.98;;;;;35.30;100813.00;;;;5105688;28;20201;-82
2021/06/17 09:20:50;;;;;;;3.70;2.30;;;;;35.40;100808.00;;;;5106875;28;20204;-82
2021/06/17 09:23:26;;;;;;;3.55;2.08;;;;;35.50;100798.00;;;;5106686;28;20192;-82
2021/06/17 09:25:56;;;;;;;9.80;1.80;;;;;35.70;100793.00;;;;5105339;28;20197;-81
2021/06/17 09:28:24;;;;;;;3.97;2.30;;;;;35.70;100793.00;;;;5102744;28;20344;-81
2021/06/17 09:30:53;;;;;;;1.90;1.75;;;;;35.80;100788.00;;;;5107078;28;20705;-81
2021/06/17 09:33:25;;;;;;;2.08;1.88;;;;;35.80;100784.00;;;;5104036;28;20200;-81
2021/06/17 09:35:54;;;;;;;2.15;1.95;;;;;35.80;100782.00;;;;5106440;28;20232;-81
2021/06/17 09:38:21;;;;;;;3.58;2.00;;;;;35.80;100780.00;;;;5105576;28;20201;-81
2021/06/17 09:40:51;;;;;;;2.53;2.13;;;;;35.80;100786.00;;;;5103386;28;20205;-82
2021/06/17 09:43:28;;;;;;;2.20;1.83;;;;;35.70;100795.00;;;;5105992;28;20274;-82
2021/06/17 09:46:01;;;;;;;7.25;2.10;;;;;35.70;100792.00;;;;5106661;28;20289;-81
2021/06/17 09:48:35;;;;;;;5.80;2.13;;;;;35.70;100789.00;;;;5106341;28;20224;-82
2021/06/17 09:51:23;;;;;;;5.18;2.38;;;;;35.60;100783.00;;;;5106346;28;20228;-81
2021/06/17 09:53:51;;;;;;;4.32;2.42;;;;;35.80;100791.00;;;;5107514;28;20721;-82
2021/06/17 09:56:29;;;;;;;4.55;2.17;;;;;35.70;100800.00;;;;5107317;28;20189;-81
2021/06/17 09:58:57;;;;;;;4.40;2.45;;;;;35.80;100807.00;;;;5108308;28;20192;-81
2021/06/17 10:01:34;;;;;;;2.30;2.10;;;;;35.70;100807.00;;;;5107770;28;20193;-81
2021/06/17 10:04:03;;;;;;;3.60;2.20;;;;;35.80;100815.00;;;;5106045;28;20647;-81
2021/06/17 10:06:31;;;;;;;3.88;2.55;;;;;35.80;100823.00;;;;5104649;28;20197;-81
2021/06/17 10:08:58;;;;;;;4.10;2.40;;;;;35.80;100820.00;;;;5107718;28;20201;-80
2021/06/17 10:11:26;;;;;;;3.08;2.42;;;;;35.80;100825.00;;;;5099184;28;20592;-79
2021/06/17 10:13:54;;;;;;;2.30;2.10;;;;;35.80;100829.00;;;;5104404;28;20197;-79
2021/06/17 10:16:21;;;;;;;2.72;2.53;;;;;35.70;100844.00;;;;5090031;28;20612;-80
2021/06/17 10:18:49;;;;;;;2.60;2.22;;;;;35.60;100834.00;;;;5108356;28;20761;-79
2021/06/17 10:21:17;;;;;;;6.35;2.55;;;;;35.60;100839.00;;;;5088075;28;20574;-80
2021/06/17 10:23:49;;;;;;;4.35;2.75;;;;;35.50;100851.00;;;;5106403;28;20244;-80
2021/06/17 10:26:20;;;;;;;3.65;2.53;;;;;35.50;100853.00;;;;5106509;28;20200;-80
2021/06/17 10:28:49;;;;;;;3.00;2.63;;;;;35.40;100860.00;;;;5107662;28;20205;-80
2021/06/17 10:31:49;;;;;;;3.67;2.47;;;;;35.20;100858.00;;;;5106914;28;20228;-80
2021/06/17 10:34:38;;;;;;;3.75;2.63;;;;;35.10;100858.00;;;;5104479;28;20211;-79
2021/06/17 10:37:11;;;;;;;4.10;2.95;;;;;35.10;100860.00;;;;5093401;28;20200;-81
2021/06/17 10:39:40;;;;;;;4.03;2.92;;;;;35.20;100863.00;;;;5103247;28;20238;-81
2021/06/17 10:42:19;;;;;;;3.28;2.80;;;;;35.10;100862.00;;;;5107152;28;20201;-81
2021/06/17 10:44:52;;;;;;;4.10;2.53;;;;;35.20;100867.00;;;;5104403;28;20205;-80
2021/06/17 10:47:52;;;;;;;3.83;2.67;;;;;35.20;100865.00;;;;5111346;28;20189;-80
2021/06/17 10:50:22;;;;;;;5.28;2.70;;;;;35.40;100864.00;;;;5111293;28;20197;-81
2021/06/17 10:52:52;;;;;;;3.13;2.83;;;;;35.60;100878.00;;;;5110792;28;20203;-82
2021/06/17 10:55:20;;;;;;;3.60;2.42;;;;;35.60;100884.00;;;;5111257;28;20189;-81
2021/06/17 10:57:57;;;;;;;3.03;2.28;;;;;35.70;100881.00;;;;5111305;28;20267;-83
2021/06/17 11:00:48;;;;;;;4.10;3.67;;;;;35.70;100881.00;;;;5108282;28;20212;-83
2021/06/17 11:03:39;;;;;;;5.55;3.00;;;;;35.80;100881.00;;;;5107991;28;20221;-82
2021/06/17 11:06:08;;;;;;;6.82;4.10;;;;;36.00;100883.00;;;;5106780;28;20197;-82
2021/06/17 11:08:35;;;;;;;3.50;3.20;;;;;36.00;100886.00;;;;5108059;28;20205;-83
2021/06/17 11:11:05;;;;;;;3.53;3.22;;;;;36.00;100887.00;;;;5115873;27;20216;-80
2021/06/17 11:13:34;;;;;;;5.68;3.58;;;;;36.10;100885.00;;;;5115223;27;20564;-79
2021/06/17 11:16:02;;;;;;;8.90;3.47;;;;;36.10;100885.00;;;;5111196;28;20224;-79
2021/06/17 11:18:54;;;;;;;3.47;3.00;;;;;36.00;100887.00;;;;5112925;28;20189;-81
2021/06/17 11:21:49;;;;;;;3.92;3.15;;;;;36.10;100893.00;;;;5107944;28;20243;-82
2021/06/17 11:24:30;;;;;;;2.92;2.70;;;;;36.20;100899.00;;;;5111738;28;20534;-80
2021/06/17 11:26:58;;;;;;;6.20;3.38;;;;;36.40;100900.00;;;;5103936;28;20190;-81
2021/06/17 11:29:56;;;;;;;4.50;2.83;;;;;36.30;100899.00;;;;5105194;28;20200;-83
2021/06/17 11:32:32;;;;;;;5.68;3.55;;;;;36.50;100901.00;;;;5107853;28;20217;-84
2021/06/17 11:34:59;;;;;;;3.45;3.08;;;;;36.60;100891.00;;;;5110489;28;20224;-84
2021/06/17 11:37:34;;;;;;;5.68;3.20;;;;;36.70;100882.00;;;;5110426;28;20558;-83
2021/06/17 11:40:01;;;;;;;3.60;3.20;;;;;36.80;100890.00;;;;5110289;27;20192;-84
2021/06/17 11:42:29;;;;;;;12.73;2.95;;;;;36.90;100910.00;;;;5099216;28;20221;-83
2021/06/17 11:45:01;;;;;;;5.25;2.85;;;;;36.90;100906.00;;;;5111397;28;20728;-84
2021/06/17 11:47:29;;;;;;;4.82;2.85;;;;;37.00;100902.00;;;;5109973;28;20201;-83
2021/06/17 11:50:06;;;;;;;12.07;3.00;;;;;36.90;100913.00;;;;5110292;28;20237;-84
2021/06/17 11:52:39;;;;;;;3.78;2.10;;;;;37.00;100913.00;;;;5110038;28;20223;-84
2021/06/17 11:55:08;;;;;;;3.92;2.40;;;;;37.00;100925.00;;;;5111024;28;20204;-84
2021/06/17 11:57:38;;;;;;;4.43;2.65;;;;;37.10;100915.00;;;;5107532;28;20197;-82
2021/06/17 12:00:08;;;;;;;2.47;2.17;;;;;37.10;100916.00;;;;5110575;28;20190;-81
2021/06/17 12:02:38;;;;;;;2.55;2.03;;;;;37.10;100913.00;;;;5111214;28;20200;-81
2021/06/17 12:05:09;;;;;;;5.18;2.63;;;;;37.00;100910.00;;;;5108414;28;20198;-81
2021/06/17 12:07:39;;;;;;;5.03;2.60;;;;;37.00;100918.00;;;;5089740;28;20190;-80
2021/06/17 12:10:16;;;;;;;4.43;1.95;;;;;37.00;100927.00;;;;5109796;28;20659;-80
2021/06/17 12:12:47;;;;;;;8.07;2.40;;;;;37.00;100926.00;;;;5109570;28;20592;-80
2021/06/17 12:15:18;;;;;;;7.40;2.10;;;;;37.00;100926.00;;;;5110221;28;20189;-80
2021/06/17 12:17:47;;;;;;;4.65;2.13;;;;;37.00;100919.00;;;;5109529;28;20205;-80
2021/06/17 12:20:17;;;;;;;2.95;2.47;;;;;37.00;100920.00;;;;5108973;28;20189;-81
2021/06/17 12:22:48;;;;;;;3.60;2.10;;;;;37.00;100922.00;;;;5098792;28;20193;-79